Reports

(Works with every column except Project. Please click on a projectname for a proper view)
Name of the report Project Country Startdatesort descending Days Wet weight Depth Salinity Temperature User
Torekov rack 2 11-09-23 Torekovs småbåtshamn Sweden 2011-04-16 160 24.00 g mikael
1 Hinsholmskilen sommaren 2011 Sweden 2011-06-15 122 1.00 cm 23.00 ‰ 18.00 C˚ BjornKallstrom
1 Koster sommaren 2011 Sweden 2011-06-18 120 BjornKallstrom
Rack nr 2C Teknik1 PS Sweden 2012-03-03 87 Teknik1_grupp2
Rack nr 5 D_120515 Teknik1 PS Sweden 2012-03-06 70 Teknik1_grupp5
Teknik1D Teknik1 PS Sweden 2012-03-06 70 Teknik1_grupp1
Teknik 1 Rack nr. 3 Grupp D Teknik1 PS Sweden 2012-03-06 70 Teknik1_grupp3
rack nr 5b Teknik1 PS Sweden 2012-03-07 70 Teknik1_grupp5
Rack nummer Teknik1 PS Sweden 2012-03-07 70 Teknik1_grupp1
Rack 2 Teknik1 PS Sweden 2012-03-07 70 Teknik1_grupp2
Ulebergshamn Dingle Naturbruksgymnasium Sweden 2012-03-13 240 31.00 g siser
Ramsvik Dingle Naturbruksgymnasium Sweden 2012-03-13 240 20.00 g siser
1C Teknik1 PS Sweden 2012-03-13 77 Teknik1_grupp1
Rack 4C Teknik1 PS Sweden 2012-03-13 77 Teknik1_grupp4
Rack 3c Teknik1 PS Sweden 2012-03-13 77 Teknik1_grupp3
Rack6c Teknik1 PS Sweden 2012-03-13 77 Teknik1_grupp6
Rack nr 5c Teknik1 PS Sweden 2012-03-13 77 Teknik1_grupp5
Rack1a Teknik1 PS Sweden 2012-03-14 77 Teknik1_grupp1
2b Teknik1 PS Sweden 2012-03-14 77 Teknik1_grupp2
Rack 6a Teknik1 PS Sweden 2012-03-14 77 Teknik1_grupp6
Rack 5a Teknik1 PS Sweden 2012-03-14 77 Teknik1_grupp5
Rack 4a Teknik1 PS Sweden 2012-03-14 77 Teknik1_grupp4
Rack 3a Teknik1 PS Sweden 2012-03-14 77 Teknik1_grupp3
Torekov rack_1 12-03-31 Torekovs småbåtshamn Sweden 2012-03-31 43 27.00 g Mikael Virtue
Torekov rack 3_12-05-13 Torekovs småbåtshamn Sweden 2012-03-31 43 22.00 g Mikael Virtue
Gästbryggan Torekovs småbåtshamn Sweden 2012-03-31 48 18.00 g Mikael Virtue
Blacktjärn 2 Blacktjärn Sweden 2012-06-04 157 IUS Fritidshemm...
Blacktjärn 1 Blacktjärn Sweden 2012-06-04 157 IUS Fritidshemm...
Ribban 1 SEA-U Marint Kunskapscenter Sweden 2012-06-05 93 8.00 g SEA-U
Mätstation 3 Sweden 2013-01-15 1 mikael
1d Teknik1 PS Sweden 2013-03-06 91 Teknik1_grupp1
12Te_4a Teknik1 PS Sweden 2013-03-06 91 Teknik1_grupp4
6d Teknik1 PS Sweden 2013-03-06 91 Teknik1_grupp6
12TE_4b Teknik1 PS Sweden 2013-03-20 63 Teknik1_grupp4
12TE_2b Teknik1 PS Sweden 2013-03-20 63 Teknik1_grupp2
12TE_1b Teknik1 PS Sweden 2013-03-20 63 Teknik1_grupp1
Rack nr.1 Teknik1 PS Sweden 2013-03-20 63 Teknik1_grupp3
Rack 1-7/7B och Rack 1-8/7C Virtue Bleket Sweden 2013-04-12 61 åk7_Bleket
Ramsvik - Skivpar 2 Dingle Naturbruksgymnasium Sweden 2013-04-25 196 40.00 g siser
Ulebergshamn - Skivpar 4 Dingle Naturbruksgymnasium Sweden 2013-04-25 196 18.00 g siser

Pages

Icon for xls export